Atlantic, North Carolina
Current Conditions -  °F | °C
As of 1:58 PM on Tuesday 27 Jan 2015 (Local Time) from KMRH Reporting Station
Overcast Overcast  
Wind Chill: 28°   Ceiling: 2400
Heat Index: 38°   Visibility: 10mi
Dew Point: 29°   Wind: 18mph
Humidity: 70%   Direction: 330°NNW
Pressure: 29.77"   Gusts: NA
Location:  34.89°N, 76.34°W
Report Text: KMRH 271858Z AUTO 33016KT 10SM OVC024 03/M02 A2977 RMK AO2 SLP080 T00331017 TSNO
Loading
Personal Weather Stations






























Interactive Weather Map New forecast layout! Learn more

10-Day Weather Forecast

Advertisements
Track Severe Weather on mobile